createdAt,value
2019-05-18T00:00:02.374Z,13.72
2019-05-18T00:01:02.283Z,13.72
2019-05-18T00:02:55.058Z,13.69
2019-05-18T00:03:54.991Z,13.61
2019-05-18T00:05:47.794Z,13.75
2019-05-18T00:06:47.734Z,13.75
2019-05-18T00:08:40.497Z,13.65
2019-05-18T00:09:40.458Z,13.53
2019-05-18T00:11:33.218Z,13.43
2019-05-18T00:12:33.188Z,13.41
2019-05-18T00:14:25.942Z,13.38
2019-05-18T00:15:25.865Z,13.35
2019-05-18T00:17:25.208Z,13.38
2019-05-18T00:18:18.570Z,13.47
2019-05-18T00:20:11.353Z,13.31
2019-05-18T00:21:11.272Z,13.35
2019-05-18T00:23:04.048Z,13.39
2019-05-18T00:24:03.994Z,13.39
2019-05-18T00:25:56.785Z,13.35
2019-05-18T00:26:56.690Z,13.29
2019-05-18T00:28:49.464Z,13.29
2019-05-18T00:29:49.394Z,13.21
2019-05-18T00:31:42.183Z,13.14
2019-05-18T00:32:42.137Z,13.13
2019-05-18T00:34:34.885Z,13.19
2019-05-18T00:35:34.812Z,13.10
2019-05-18T00:37:27.652Z,13.07
2019-05-18T00:38:27.536Z,13.03
2019-05-18T00:40:20.326Z,13.03
2019-05-18T00:41:20.246Z,13.03
2019-05-18T00:43:13.026Z,12.96
2019-05-18T00:44:12.965Z,13.06
2019-05-18T00:46:05.763Z,13.01
2019-05-18T00:47:05.683Z,13.03
2019-05-18T00:48:58.476Z,12.96
2019-05-18T00:49:58.409Z,12.95
2019-05-18T00:51:51.298Z,12.98
2019-05-18T00:52:51.120Z,12.95
2019-05-18T00:54:43.909Z,12.77
2019-05-18T00:55:43.844Z,12.87
2019-05-18T00:57:36.614Z,12.81
2019-05-18T00:58:36.538Z,12.73
2019-05-18T01:00:29.344Z,12.62
2019-05-18T01:01:29.269Z,12.54
2019-05-18T01:03:22.042Z,12.54
2019-05-18T01:04:21.981Z,12.52
2019-05-18T01:06:14.755Z,12.51
2019-05-18T01:07:14.691Z,12.58
2019-05-18T01:09:07.485Z,12.52
2019-05-18T01:10:07.406Z,12.43
2019-05-18T01:12:00.181Z,12.44
2019-05-18T01:13:00.117Z,12.48
2019-05-18T01:14:52.872Z,12.31
2019-05-18T01:15:52.870Z,12.31
2019-05-18T01:17:56.813Z,12.37
2019-05-18T01:18:45.528Z,12.31
2019-05-18T01:20:38.337Z,12.36
2019-05-18T01:21:38.228Z,12.34
2019-05-18T01:23:30.997Z,12.33
2019-05-18T01:24:30.935Z,12.31
2019-05-18T01:26:23.755Z,12.37
2019-05-18T01:27:23.666Z,12.26
2019-05-18T01:29:16.449Z,12.23
2019-05-18T01:30:16.381Z,12.23
2019-05-18T01:32:09.303Z,12.22
2019-05-18T01:33:09.218Z,12.11
2019-05-18T01:35:02.030Z,12.11
2019-05-18T01:36:01.954Z,12.13
2019-05-18T01:37:54.761Z,12.15
2019-05-18T01:38:54.671Z,12.26
2019-05-18T01:40:47.476Z,12.12
2019-05-18T01:41:47.371Z,12.01
2019-05-18T01:43:40.177Z,12.11
2019-05-18T01:44:40.100Z,12.07
2019-05-18T01:46:32.871Z,12.16
2019-05-18T01:47:32.781Z,12.12
2019-05-18T01:49:25.577Z,12.15
2019-05-18T01:50:25.528Z,12.15
2019-05-18T01:52:18.317Z,12.01
2019-05-18T01:53:18.244Z,12.15
2019-05-18T01:55:40.011Z,12.12
2019-05-18T01:56:39.977Z,12.03
2019-05-18T01:58:32.727Z,12.04
2019-05-18T01:59:32.647Z,12.03
2019-05-18T02:01:25.420Z,11.97
2019-05-18T02:02:25.337Z,11.84
2019-05-18T02:04:18.133Z,11.98
2019-05-18T02:05:18.063Z,11.93
2019-05-18T02:07:10.844Z,12.03
2019-05-18T02:08:10.748Z,12.12
2019-05-18T02:10:03.523Z,12.11
2019-05-18T02:11:03.441Z,11.94
2019-05-18T02:12:56.217Z,11.96
2019-05-18T02:13:56.152Z,11.93
2019-05-18T02:15:48.919Z,12.00
2019-05-18T02:16:48.881Z,11.93
2019-05-18T02:18:41.690Z,11.87
2019-05-18T02:19:41.563Z,11.85
2019-05-18T02:21:34.378Z,11.94
2019-05-18T02:22:34.335Z,11.84
2019-05-18T02:24:27.059Z,11.96
2019-05-18T02:25:26.987Z,11.93
2019-05-18T02:27:19.799Z,11.84
2019-05-18T02:28:19.701Z,11.81
2019-05-18T02:30:17.008Z,11.77
2019-05-18T02:31:12.426Z,11.75
2019-05-18T02:33:05.321Z,11.75
2019-05-18T02:35:58.003Z,11.64
2019-05-18T02:36:57.935Z,11.59
2019-05-18T02:38:50.706Z,11.53
2019-05-18T02:39:50.630Z,11.60
2019-05-18T02:41:43.407Z,11.54
2019-05-18T02:42:43.329Z,11.49
2019-05-18T02:44:36.132Z,11.56
2019-05-18T02:45:36.076Z,11.44
2019-05-18T02:47:28.872Z,11.53
2019-05-18T02:48:28.772Z,11.53
2019-05-18T02:50:21.560Z,11.53
2019-05-18T02:51:21.490Z,11.41
2019-05-18T02:53:14.264Z,11.33
2019-05-18T02:54:14.183Z,11.33
2019-05-18T02:56:06.960Z,11.39
2019-05-18T02:57:06.895Z,11.51
2019-05-18T02:58:59.936Z,11.49
2019-05-18T02:59:59.593Z,11.45
2019-05-18T03:01:52.414Z,11.53
2019-05-18T03:02:52.286Z,11.51
2019-05-18T03:04:45.085Z,11.57
2019-05-18T03:05:45.009Z,11.49
2019-05-18T03:07:37.829Z,11.62
2019-05-18T03:08:37.736Z,11.62
2019-05-18T03:10:30.503Z,11.62
2019-05-18T03:11:30.438Z,11.62
2019-05-18T03:13:23.225Z,11.69
2019-05-18T03:14:23.159Z,11.66
2019-05-18T03:16:15.929Z,11.74
2019-05-18T03:17:15.864Z,11.72
2019-05-18T03:19:09.384Z,11.75
2019-05-18T03:20:08.593Z,11.82
2019-05-18T03:22:01.433Z,11.84
2019-05-18T03:23:01.312Z,11.85
2019-05-18T03:24:54.087Z,11.82
2019-05-18T03:25:54.008Z,11.78
2019-05-18T03:27:46.815Z,11.78
2019-05-18T03:28:46.719Z,11.78
2019-05-18T03:30:39.497Z,11.82
2019-05-18T03:31:39.449Z,11.84
2019-05-18T03:33:32.225Z,11.81
2019-05-18T03:34:32.125Z,11.88
2019-05-18T03:36:24.891Z,11.94
2019-05-18T03:37:24.821Z,11.90
2019-05-18T03:39:17.596Z,12.01
2019-05-18T03:40:17.528Z,12.00
2019-05-18T03:42:10.341Z,12.05
2019-05-18T03:43:10.286Z,12.11
2019-05-18T03:45:03.071Z,12.12
2019-05-18T03:46:03.014Z,12.15
2019-05-18T03:47:55.835Z,12.07
2019-05-18T03:48:55.721Z,12.11
2019-05-18T03:50:48.531Z,12.08
2019-05-18T03:51:48.494Z,12.03
2019-05-18T03:53:41.282Z,12.08
2019-05-18T03:54:41.213Z,12.11
2019-05-18T03:56:33.990Z,12.21
2019-05-18T03:57:33.910Z,12.15
2019-05-18T03:59:26.723Z,12.18
2019-05-18T04:00:26.635Z,12.08
2019-05-18T04:02:19.409Z,12.18
2019-05-18T04:03:19.347Z,12.22
2019-05-18T04:05:12.120Z,12.25
2019-05-18T04:06:12.041Z,12.21
2019-05-18T04:08:04.857Z,12.22
2019-05-18T04:09:04.763Z,12.25
2019-05-18T04:10:57.548Z,12.29
2019-05-18T04:11:57.468Z,12.25
2019-05-18T04:13:50.273Z,12.26
2019-05-18T04:14:50.194Z,12.23
2019-05-18T04:16:42.964Z,12.44
2019-05-18T04:17:42.896Z,12.37
2019-05-18T04:19:46.439Z,12.44
2019-05-18T04:20:35.603Z,12.36
2019-05-18T04:22:28.380Z,12.36
2019-05-18T04:23:28.307Z,12.41
2019-05-18T04:25:21.084Z,12.56
2019-05-18T04:26:21.008Z,12.62
2019-05-18T04:28:13.806Z,12.67
2019-05-18T04:29:13.704Z,12.79
2019-05-18T04:31:06.482Z,12.77
2019-05-18T04:32:06.407Z,12.79
2019-05-18T04:33:59.212Z,12.85
2019-05-18T04:34:59.127Z,12.91
2019-05-18T04:36:51.934Z,12.91
2019-05-18T04:37:51.878Z,13.04
2019-05-18T04:39:44.654Z,12.98
2019-05-18T04:40:44.581Z,12.98
2019-05-18T04:42:37.392Z,13.07
2019-05-18T04:43:37.295Z,13.14
2019-05-18T04:45:30.082Z,13.28
2019-05-18T04:46:29.985Z,13.35
2019-05-18T04:48:22.779Z,13.54
2019-05-18T04:49:22.684Z,13.63
2019-05-18T04:51:15.477Z,13.63
2019-05-18T04:52:15.408Z,13.62
2019-05-18T04:54:08.215Z,13.69
2019-05-18T04:55:08.123Z,13.81
2019-05-18T04:57:00.891Z,14.08
2019-05-18T04:58:00.823Z,14.17
2019-05-18T04:59:53.635Z,14.12
2019-05-18T05:00:53.561Z,14.13
2019-05-18T05:02:46.314Z,14.26
2019-05-18T05:03:46.250Z,14.19
2019-05-18T05:05:39.019Z,14.61
2019-05-18T05:06:38.939Z,15.11
2019-05-18T05:08:31.722Z,16.51
2019-05-18T05:09:31.660Z,17.00
2019-05-18T05:11:24.444Z,17.35
2019-05-18T05:12:24.366Z,17.79
2019-05-18T05:14:17.165Z,18.09
2019-05-18T05:15:17.094Z,18.20
2019-05-18T05:17:09.885Z,19.25
2019-05-18T05:18:09.823Z,19.76
2019-05-18T05:20:02.596Z,20.97
2019-05-18T05:21:02.521Z,20.54
2019-05-18T05:22:55.299Z,21.73
2019-05-18T05:23:55.237Z,22.20
2019-05-18T05:25:48.045Z,21.71
2019-05-18T05:26:47.932Z,21.63
2019-05-18T05:28:40.728Z,21.73
2019-05-18T05:29:40.662Z,21.85
2019-05-18T05:31:33.495Z,21.68
2019-05-18T05:32:33.408Z,21.85
2019-05-18T05:34:26.206Z,21.55
2019-05-18T05:35:26.120Z,21.12
2019-05-18T05:37:18.931Z,22.04
2019-05-18T05:38:18.859Z,22.12
2019-05-18T05:40:11.688Z,21.59
2019-05-18T05:41:16.580Z,20.94
2019-05-18T05:43:04.414Z,21.67
2019-05-18T05:44:04.351Z,21.67
2019-05-18T05:45:57.159Z,22.72
2019-05-18T05:46:57.081Z,22.75
2019-05-18T05:48:50.084Z,23.68
2019-05-18T05:49:49.971Z,23.71
2019-05-18T05:51:42.881Z,23.75
2019-05-18T05:52:42.766Z,24.09
2019-05-18T05:54:35.684Z,23.97
2019-05-18T05:55:35.575Z,24.61
2019-05-18T05:57:28.570Z,24.23
2019-05-18T05:58:28.499Z,24.99
2019-05-18T06:00:21.761Z,24.37
2019-05-18T06:01:21.518Z,23.64
2019-05-18T06:03:14.326Z,23.45
2019-05-18T06:04:14.262Z,22.78
2019-05-18T06:06:07.120Z,22.96
2019-05-18T06:07:06.959Z,23.78
2019-05-18T06:09:00.190Z,22.60
2019-05-18T06:09:59.947Z,23.31
2019-05-18T06:11:52.965Z,22.49
2019-05-18T06:12:52.839Z,22.38
2019-05-18T06:14:45.921Z,22.78
2019-05-18T06:15:45.773Z,23.42
2019-05-18T06:17:38.719Z,24.11
2019-05-18T06:18:38.583Z,24.51
2019-05-18T06:20:31.575Z,23.72
2019-05-18T06:21:31.439Z,24.55
2019-05-18T06:23:24.619Z,26.03
2019-05-18T06:24:24.399Z,26.93
2019-05-18T06:26:17.217Z,26.16
2019-05-18T06:27:17.111Z,26.90
2019-05-18T06:29:09.913Z,27.24
2019-05-18T06:30:09.849Z,26.19
2019-05-18T06:32:02.679Z,24.08
2019-05-18T06:33:02.604Z,23.06
2019-05-18T06:34:55.582Z,23.69
2019-05-18T06:35:55.342Z,23.79
2019-05-18T06:37:48.150Z,24.33
2019-05-18T06:38:48.109Z,24.27
2019-05-18T06:40:40.910Z,23.44
2019-05-18T06:41:40.841Z,23.78
2019-05-18T06:43:33.660Z,23.68
2019-05-18T06:44:33.606Z,24.06
2019-05-18T06:46:26.428Z,24.79
2019-05-18T06:47:26.355Z,25.75
2019-05-18T06:49:19.141Z,26.56
2019-05-18T06:50:19.131Z,25.67
2019-05-18T06:52:12.057Z,23.64
2019-05-18T06:53:16.152Z,24.23
2019-05-18T06:55:05.049Z,24.93
2019-05-18T06:56:04.765Z,24.11
2019-05-18T06:57:57.561Z,22.42
2019-05-18T06:58:57.571Z,22.01
2019-05-18T07:00:50.821Z,23.26
2019-05-18T07:01:50.710Z,24.23
2019-05-18T07:03:45.104Z,25.38
2019-05-18T07:04:44.676Z,25.46
2019-05-18T07:06:36.780Z,26.46
2019-05-18T07:07:36.340Z,25.94
2019-05-18T07:09:30.106Z,26.01
2019-05-18T07:10:29.435Z,25.83
2019-05-18T07:12:22.535Z,25.74
2019-05-18T07:13:22.310Z,26.06
2019-05-18T07:15:15.724Z,25.60
2019-05-18T07:16:15.626Z,24.90
2019-05-18T07:18:10.387Z,25.08
2019-05-18T07:19:08.668Z,24.33
2019-05-18T07:21:01.361Z,25.09
2019-05-18T07:22:02.500Z,24.92
2019-05-18T07:23:54.090Z,23.62
2019-05-18T07:24:54.178Z,23.47
2019-05-18T07:26:47.746Z,24.36
2019-05-18T07:27:46.982Z,24.87
2019-05-18T07:29:39.829Z,24.36
2019-05-18T07:30:39.993Z,23.67
2019-05-18T07:32:32.802Z,23.60
2019-05-18T07:33:32.784Z,23.93
2019-05-18T07:35:25.595Z,24.39
2019-05-18T07:36:25.523Z,24.34
2019-05-18T07:38:18.389Z,25.81
2019-05-18T07:39:18.261Z,25.59
2019-05-18T07:41:11.181Z,25.57
2019-05-18T07:42:11.096Z,25.17
2019-05-18T07:44:03.902Z,23.81
2019-05-18T07:45:03.833Z,24.41
2019-05-18T07:46:56.870Z,25.36
2019-05-18T07:47:56.798Z,25.48
2019-05-18T07:49:49.629Z,24.97
2019-05-18T07:50:49.557Z,25.41
2019-05-18T07:52:42.734Z,26.19
2019-05-18T07:53:42.658Z,24.99
2019-05-18T07:55:35.503Z,25.46
2019-05-18T07:56:35.415Z,26.21
2019-05-18T07:58:28.256Z,27.09
2019-05-18T07:59:28.200Z,26.51
2019-05-18T08:01:21.144Z,24.92
2019-05-18T08:02:21.064Z,25.01
2019-05-18T08:04:13.856Z,26.56
2019-05-18T08:05:13.814Z,26.88
2019-05-18T08:07:06.639Z,27.16
2019-05-18T08:08:06.552Z,26.61
2019-05-18T08:09:59.339Z,25.98
2019-05-18T08:10:59.291Z,26.51
2019-05-18T08:12:52.122Z,27.28
2019-05-18T08:13:52.031Z,27.53
2019-05-18T08:15:44.866Z,27.81
2019-05-18T08:16:44.813Z,27.21
2019-05-18T08:18:37.641Z,27.99
2019-05-18T08:19:37.604Z,28.25
2019-05-18T08:21:30.498Z,28.33
2019-05-18T08:22:30.324Z,28.70
2019-05-18T08:24:23.147Z,29.88
2019-05-18T08:25:23.077Z,30.26
2019-05-18T08:27:15.873Z,30.25
2019-05-18T08:28:15.814Z,28.95
2019-05-18T08:30:08.624Z,26.87
2019-05-18T08:31:08.556Z,27.08
2019-05-18T08:33:01.383Z,26.32
2019-05-18T08:34:01.319Z,25.96
2019-05-18T08:35:54.559Z,26.90
2019-05-18T08:36:54.274Z,26.01
2019-05-18T08:38:47.102Z,24.94
2019-05-18T08:39:47.038Z,25.29
2019-05-18T08:41:39.962Z,26.49
2019-05-18T08:42:39.879Z,26.91
2019-05-18T08:44:32.706Z,27.50
2019-05-18T08:45:32.622Z,27.66
2019-05-18T08:47:25.477Z,28.15
2019-05-18T08:48:25.441Z,28.55
2019-05-18T08:50:18.268Z,29.41
2019-05-18T08:51:18.189Z,29.51
2019-05-18T08:53:11.023Z,29.02
2019-05-18T08:54:10.963Z,28.70
2019-05-18T08:56:03.762Z,29.23
2019-05-18T08:57:03.696Z,29.71
2019-05-18T08:58:56.522Z,28.64
2019-05-18T08:59:56.457Z,28.35
2019-05-18T09:01:49.388Z,29.10
2019-05-18T09:02:49.376Z,29.44
2019-05-18T09:04:42.114Z,30.10
2019-05-18T09:05:42.070Z,30.57
2019-05-18T09:07:34.957Z,30.70
2019-05-18T09:08:34.884Z,28.83
2019-05-18T09:10:27.686Z,28.01
2019-05-18T09:11:27.723Z,28.67
2019-05-18T09:13:20.434Z,27.86
2019-05-18T09:14:20.367Z,26.93
2019-05-18T09:16:13.207Z,25.97
2019-05-18T09:17:13.143Z,26.78
2019-05-18T09:19:05.929Z,27.16
2019-05-18T09:20:05.875Z,26.49
2019-05-18T09:21:58.674Z,27.61
2019-05-18T09:22:58.620Z,27.68
2019-05-18T09:24:51.417Z,28.80
2019-05-18T09:25:51.350Z,29.07
2019-05-18T09:27:44.184Z,27.98
2019-05-18T09:28:44.098Z,28.18
2019-05-18T09:30:36.929Z,28.30
2019-05-18T09:31:36.894Z,29.08
2019-05-18T09:33:29.725Z,29.15
2019-05-18T09:34:29.653Z,29.73
2019-05-18T09:36:22.457Z,29.67
2019-05-18T09:37:22.405Z,28.01
2019-05-18T09:39:15.255Z,27.25
2019-05-18T09:40:15.166Z,27.34
2019-05-18T09:42:08.021Z,28.15
2019-05-18T09:43:07.979Z,28.50
2019-05-18T09:45:00.742Z,27.05
2019-05-18T09:46:00.789Z,26.20
2019-05-18T09:47:53.623Z,26.87
2019-05-18T09:48:53.451Z,27.28
2019-05-18T09:50:46.277Z,27.45
2019-05-18T09:51:46.249Z,28.14
2019-05-18T09:53:50.652Z,27.11
2019-05-18T09:54:38.967Z,27.42
2019-05-18T09:56:31.782Z,26.60
2019-05-18T09:57:31.736Z,26.88
2019-05-18T09:59:24.560Z,26.65
2019-05-18T10:00:24.466Z,27.16
2019-05-18T10:02:17.271Z,26.94
2019-05-18T10:03:17.195Z,27.12
2019-05-18T10:05:09.984Z,27.20
2019-05-18T10:06:09.927Z,27.15
2019-05-18T10:08:02.728Z,26.28
2019-05-18T10:09:02.741Z,26.83
2019-05-18T10:10:55.488Z,27.05
2019-05-18T10:11:55.400Z,27.16
2019-05-18T10:13:48.252Z,27.65
2019-05-18T10:14:48.171Z,28.18
2019-05-18T10:16:40.976Z,27.40
2019-05-18T10:17:40.927Z,26.87
2019-05-18T10:19:33.746Z,27.11
2019-05-18T10:20:33.684Z,27.49
2019-05-18T10:22:26.517Z,26.69
2019-05-18T10:23:26.543Z,26.19
2019-05-18T10:25:19.287Z,24.75
2019-05-18T10:26:19.235Z,25.49
2019-05-18T10:28:12.048Z,26.51
2019-05-18T10:29:11.959Z,26.97
2019-05-18T10:31:04.767Z,27.23
2019-05-18T10:32:04.718Z,27.61
2019-05-18T10:33:57.570Z,27.93
2019-05-18T10:34:57.500Z,26.78
2019-05-18T10:36:50.323Z,26.51
2019-05-18T10:37:50.256Z,26.75
2019-05-18T10:39:43.097Z,27.33
2019-05-18T10:40:43.007Z,27.21
2019-05-18T10:42:35.821Z,26.31
2019-05-18T10:43:35.750Z,25.93
2019-05-18T10:45:28.588Z,26.96
2019-05-18T10:46:28.510Z,27.16
2019-05-18T10:48:21.320Z,26.86
2019-05-18T10:49:21.286Z,26.61
2019-05-18T10:51:14.043Z,26.42
2019-05-18T10:52:14.005Z,26.16
2019-05-18T10:54:06.827Z,25.30
2019-05-18T10:55:06.752Z,25.38
2019-05-18T10:56:59.655Z,24.92
2019-05-18T10:57:59.529Z,24.79
2019-05-18T10:59:52.374Z,23.97
2019-05-18T11:00:52.288Z,24.08
2019-05-18T11:02:45.117Z,24.26
2019-05-18T11:03:45.053Z,24.48
2019-05-18T11:05:37.900Z,24.06
2019-05-18T11:06:37.811Z,24.24
2019-05-18T11:08:30.601Z,24.86
2019-05-18T11:09:30.532Z,24.68
2019-05-18T11:11:23.342Z,24.34
2019-05-18T11:12:23.257Z,24.34
2019-05-18T11:14:18.766Z,24.46
2019-05-18T11:15:15.993Z,24.23
2019-05-18T11:17:08.868Z,24.27
2019-05-18T11:18:08.759Z,24.23
2019-05-18T11:20:01.726Z,24.16
2019-05-18T11:21:01.636Z,24.29
2019-05-18T11:22:55.873Z,24.16
2019-05-18T11:23:54.388Z,24.27
2019-05-18T11:25:47.260Z,24.55
2019-05-18T11:26:47.157Z,24.18
2019-05-18T11:28:40.007Z,24.09
2019-05-18T11:29:39.886Z,24.23
2019-05-18T11:31:32.743Z,24.06
2019-05-18T11:32:32.689Z,24.12
2019-05-18T11:34:25.655Z,23.75
2019-05-18T11:35:25.536Z,23.84
2019-05-18T11:37:18.341Z,23.71
2019-05-18T11:38:18.268Z,23.78
2019-05-18T11:40:11.123Z,23.72
2019-05-18T11:41:10.998Z,24.00
2019-05-18T11:43:03.792Z,24.05
2019-05-18T11:44:03.735Z,24.36
2019-05-18T11:45:56.519Z,24.49
2019-05-18T11:46:56.448Z,24.63
2019-05-18T11:48:49.284Z,24.46
2019-05-18T11:49:49.202Z,24.48
2019-05-18T11:51:41.991Z,23.94
2019-05-18T11:52:41.923Z,24.06
2019-05-18T11:54:34.785Z,24.27
2019-05-18T11:55:34.664Z,24.59
2019-05-18T11:57:27.502Z,24.51
2019-05-18T11:58:27.447Z,24.45
2019-05-18T12:00:20.239Z,24.39
2019-05-18T12:01:20.149Z,24.04
2019-05-18T12:03:12.974Z,23.89
2019-05-18T12:04:12.892Z,24.04
2019-05-18T12:06:05.694Z,23.94
2019-05-18T12:07:05.619Z,23.90
2019-05-18T12:08:58.747Z,23.87
2019-05-18T12:09:58.342Z,23.81
2019-05-18T12:11:51.106Z,23.87
2019-05-18T12:12:51.050Z,23.96
2019-05-18T12:14:43.822Z,24.30
2019-05-18T12:15:43.755Z,24.34
2019-05-18T12:17:36.573Z,24.59
2019-05-18T12:18:36.493Z,24.87
2019-05-18T12:20:29.333Z,24.75
2019-05-18T12:21:29.218Z,24.97
2019-05-18T12:23:21.992Z,24.71
2019-05-18T12:24:21.928Z,24.74
2019-05-18T12:26:14.744Z,24.90
2019-05-18T12:27:14.677Z,25.07
2019-05-18T12:29:07.478Z,24.86
2019-05-18T12:30:07.425Z,24.86
2019-05-18T12:32:00.215Z,24.97
2019-05-18T12:33:00.122Z,25.09
2019-05-18T12:34:52.914Z,25.35
2019-05-18T12:35:52.851Z,25.42
2019-05-18T12:37:45.646Z,25.26
2019-05-18T12:38:45.587Z,25.29
2019-05-18T12:40:38.366Z,25.09
2019-05-18T12:41:38.333Z,24.83
2019-05-18T12:43:31.099Z,24.68
2019-05-18T12:44:31.036Z,24.90
2019-05-18T12:46:23.851Z,24.84
2019-05-18T12:47:23.776Z,24.77
2019-05-18T12:49:16.582Z,24.93
2019-05-18T12:50:16.507Z,25.01
2019-05-18T12:52:09.413Z,25.45
2019-05-18T12:53:09.262Z,25.27
2019-05-18T12:55:02.132Z,25.38
2019-05-18T12:56:01.984Z,25.39
2019-05-18T12:57:54.818Z,25.71
2019-05-18T12:58:54.749Z,25.56
2019-05-18T13:00:47.542Z,25.54
2019-05-18T13:01:47.460Z,25.53
2019-05-18T13:03:40.235Z,25.35
2019-05-18T13:04:42.010Z,25.30
2019-05-18T13:06:32.961Z,24.99
2019-05-18T13:07:32.889Z,25.04
2019-05-18T13:09:25.697Z,25.11
2019-05-18T13:10:25.632Z,25.29
2019-05-18T13:12:18.437Z,24.99
2019-05-18T13:13:18.371Z,24.99
2019-05-18T13:15:11.167Z,24.71
2019-05-18T13:16:11.101Z,24.82
2019-05-18T13:18:03.902Z,24.49
2019-05-18T13:19:03.844Z,24.63
2019-05-18T13:20:56.645Z,24.64
2019-05-18T13:21:56.575Z,24.68
2019-05-18T13:23:49.382Z,24.49
2019-05-18T13:24:52.011Z,24.23
2019-05-18T13:26:42.087Z,24.34
2019-05-18T13:27:42.023Z,24.64
2019-05-18T13:29:34.809Z,24.90
2019-05-18T13:30:34.752Z,25.02
2019-05-18T13:32:27.563Z,25.07
2019-05-18T13:33:27.491Z,24.94
2019-05-18T13:35:20.340Z,25.17
2019-05-18T13:36:20.221Z,25.19
2019-05-18T13:38:12.998Z,25.02
2019-05-18T13:39:20.082Z,25.16
2019-05-18T13:41:05.743Z,25.38
2019-05-18T13:42:05.673Z,25.63
2019-05-18T13:43:58.490Z,25.82
2019-05-18T13:44:58.436Z,25.82
2019-05-18T13:46:51.233Z,25.72
2019-05-18T13:47:51.134Z,25.69
2019-05-18T13:49:43.937Z,25.24
2019-05-18T13:50:44.852Z,25.38
2019-05-18T13:52:36.718Z,25.23
2019-05-18T13:53:36.635Z,25.22
2019-05-18T13:55:29.494Z,24.98
2019-05-18T13:56:29.428Z,24.99
2019-05-18T13:58:22.247Z,24.87
2019-05-18T13:59:22.164Z,24.80
2019-05-18T14:01:14.966Z,24.77
2019-05-18T14:02:14.894Z,24.75
2019-05-18T14:04:07.673Z,24.89
2019-05-18T14:05:07.650Z,24.93
2019-05-18T14:07:00.417Z,25.07
2019-05-18T14:08:00.331Z,25.04
2019-05-18T14:09:53.135Z,24.99
2019-05-18T14:10:53.067Z,25.19
2019-05-18T14:12:45.899Z,25.12
2019-05-18T14:13:45.825Z,24.87
2019-05-18T14:15:38.574Z,24.77
2019-05-18T14:16:38.507Z,24.90
2019-05-18T14:18:31.300Z,24.82
2019-05-18T14:19:31.249Z,24.98
2019-05-18T14:21:24.013Z,25.07
2019-05-18T14:22:23.939Z,25.23
2019-05-18T14:24:16.719Z,25.27
2019-05-18T14:25:19.707Z,25.36
2019-05-18T14:27:09.464Z,25.12
2019-05-18T14:28:09.375Z,25.27
2019-05-18T14:30:02.205Z,25.53
2019-05-18T14:31:02.098Z,25.67
2019-05-18T14:32:54.899Z,25.45
2019-05-18T14:33:54.808Z,25.30
2019-05-18T14:35:47.643Z,25.69
2019-05-18T14:36:47.555Z,25.79
2019-05-18T14:38:40.353Z,25.93
2019-05-18T14:39:40.283Z,26.11
2019-05-18T14:41:33.069Z,25.74
2019-05-18T14:42:33.009Z,25.79
2019-05-18T14:44:25.793Z,25.75
2019-05-18T14:45:25.716Z,25.75
2019-05-18T14:47:18.539Z,25.51
2019-05-18T14:48:18.456Z,25.49
2019-05-18T14:50:11.246Z,25.31
2019-05-18T14:51:11.184Z,25.31
2019-05-18T14:53:03.980Z,25.42
2019-05-18T14:54:03.903Z,25.53
2019-05-18T14:55:56.691Z,25.71
2019-05-18T14:56:56.619Z,25.69
2019-05-18T14:58:49.422Z,25.53
2019-05-18T14:59:49.346Z,25.26
2019-05-18T15:01:42.148Z,25.22
2019-05-18T15:02:42.082Z,25.38
2019-05-18T15:04:34.832Z,25.57
2019-05-18T15:05:34.775Z,25.57
2019-05-18T15:07:27.587Z,25.53
2019-05-18T15:08:27.498Z,25.22
2019-05-18T15:10:20.273Z,25.19
2019-05-18T15:11:20.209Z,25.14
2019-05-18T15:13:13.009Z,25.12
2019-05-18T15:14:12.936Z,25.16
2019-05-18T15:16:05.776Z,25.29
2019-05-18T15:17:05.659Z,25.41
2019-05-18T15:18:58.460Z,25.24
2019-05-18T15:19:58.383Z,25.11
2019-05-18T15:21:51.192Z,25.04
2019-05-18T15:22:51.122Z,25.02
2019-05-18T15:24:43.927Z,25.16
2019-05-18T15:25:50.639Z,25.07
2019-05-18T15:27:36.617Z,25.26
2019-05-18T15:28:36.558Z,25.12
2019-05-18T15:30:29.384Z,25.04
2019-05-18T15:31:29.310Z,25.24
2019-05-18T15:33:22.123Z,25.34
2019-05-18T15:34:22.086Z,25.53
2019-05-18T15:36:14.839Z,25.71
2019-05-18T15:37:14.781Z,25.79
2019-05-18T15:39:07.572Z,25.71
2019-05-18T15:40:07.498Z,25.85
2019-05-18T15:42:00.303Z,25.56
2019-05-18T15:43:00.242Z,25.51
2019-05-18T15:44:53.133Z,25.39
2019-05-18T15:45:52.990Z,25.35
2019-05-18T15:47:45.806Z,25.38
2019-05-18T15:48:45.819Z,25.24
2019-05-18T15:50:38.500Z,25.23
2019-05-18T15:51:38.443Z,25.36
2019-05-18T15:53:31.255Z,25.42
2019-05-18T15:54:31.172Z,25.22
2019-05-18T15:56:23.951Z,25.08
2019-05-18T15:57:23.957Z,25.16
2019-05-18T15:59:16.690Z,25.22
2019-05-18T16:00:16.619Z,25.20
2019-05-18T16:02:09.417Z,25.14
2019-05-18T16:03:09.342Z,25.23
2019-05-18T16:05:02.246Z,25.29
2019-05-18T16:06:02.187Z,25.24
2019-05-18T16:07:54.881Z,25.16
2019-05-18T16:08:54.801Z,25.20
2019-05-18T16:10:47.594Z,25.16
2019-05-18T16:11:47.523Z,25.11
2019-05-18T16:13:40.370Z,25.01
2019-05-18T16:14:40.252Z,25.02
2019-05-18T16:16:33.041Z,25.07
2019-05-18T16:17:39.673Z,25.17
2019-05-18T16:19:25.779Z,25.11
2019-05-18T16:20:25.715Z,25.09
2019-05-18T16:22:18.489Z,25.16
2019-05-18T16:23:18.428Z,25.09
2019-05-18T16:25:11.262Z,25.01
2019-05-18T16:26:21.213Z,25.12
2019-05-18T16:28:04.006Z,25.22
2019-05-18T16:29:03.912Z,25.27
2019-05-18T16:30:56.722Z,25.24
2019-05-18T16:31:56.658Z,25.17
2019-05-18T16:33:49.447Z,25.23
2019-05-18T16:34:49.376Z,25.27
2019-05-18T16:36:42.160Z,25.08
2019-05-18T16:37:42.136Z,25.12
2019-05-18T16:39:34.944Z,25.09
2019-05-18T16:40:34.866Z,25.11
2019-05-18T16:42:27.627Z,25.46
2019-05-18T16:43:27.568Z,25.64
2019-05-18T16:45:20.357Z,25.46
2019-05-18T16:46:20.279Z,25.42
2019-05-18T16:48:13.103Z,25.39
2019-05-18T16:49:13.012Z,25.30
2019-05-18T16:51:05.810Z,25.30
2019-05-18T16:52:05.710Z,25.16
2019-05-18T16:53:58.567Z,25.23
2019-05-18T16:54:58.520Z,25.09
2019-05-18T16:56:51.349Z,25.12
2019-05-18T16:57:51.249Z,25.14
2019-05-18T16:59:44.080Z,25.29
2019-05-18T17:00:43.953Z,25.16
2019-05-18T17:02:36.751Z,25.02
2019-05-18T17:03:36.688Z,24.93
2019-05-18T17:05:29.546Z,24.90
2019-05-18T17:06:29.434Z,24.99
2019-05-18T17:08:22.249Z,25.01
2019-05-18T17:09:22.231Z,25.04
2019-05-18T17:11:14.984Z,24.82
2019-05-18T17:12:14.903Z,24.97
2019-05-18T17:14:07.767Z,24.99
2019-05-18T17:15:07.902Z,24.98
2019-05-18T17:17:00.454Z,24.90
2019-05-18T17:18:00.388Z,24.75
2019-05-18T17:19:53.234Z,24.77
2019-05-18T17:20:53.124Z,24.75
2019-05-18T17:22:45.920Z,24.79
2019-05-18T17:23:45.852Z,24.67
2019-05-18T17:25:38.643Z,24.70
2019-05-18T17:26:51.596Z,24.79
2019-05-18T17:28:31.374Z,24.74
2019-05-18T17:29:31.305Z,24.79
2019-05-18T17:31:24.151Z,24.82
2019-05-18T17:32:24.081Z,24.75
2019-05-18T17:34:16.948Z,24.53
2019-05-18T17:35:16.827Z,24.61
2019-05-18T17:37:09.628Z,24.48
2019-05-18T17:38:09.551Z,24.31
2019-05-18T17:40:02.925Z,24.37
2019-05-18T17:41:02.361Z,24.37
2019-05-18T17:42:55.268Z,24.27
2019-05-18T17:43:55.133Z,24.29
2019-05-18T17:45:48.290Z,24.14
2019-05-18T17:46:48.095Z,24.19
2019-05-18T17:48:41.066Z,24.11
2019-05-18T17:49:40.929Z,24.09
2019-05-18T17:51:34.133Z,23.96
2019-05-18T17:52:34.071Z,24.00
2019-05-18T17:54:26.966Z,23.78
2019-05-18T17:55:27.002Z,23.77
2019-05-18T17:57:19.715Z,23.81
2019-05-18T17:58:19.574Z,23.63
2019-05-18T18:00:12.487Z,23.69
2019-05-18T18:01:12.534Z,23.63
2019-05-18T18:03:05.513Z,23.59
2019-05-18T18:04:06.583Z,23.64
2019-05-18T18:05:58.215Z,23.57
2019-05-18T18:06:57.975Z,23.53
2019-05-18T18:08:50.918Z,23.45
2019-05-18T18:09:50.968Z,23.42
2019-05-18T18:11:44.000Z,23.35
2019-05-18T18:12:45.598Z,23.26
2019-05-18T18:14:36.839Z,23.12
2019-05-18T18:15:36.717Z,23.15
2019-05-18T18:17:29.667Z,22.97
2019-05-18T18:18:29.445Z,22.91
2019-05-18T18:20:22.689Z,22.79
2019-05-18T18:21:22.419Z,22.89
2019-05-18T18:23:15.695Z,22.76
2019-05-18T18:24:15.515Z,22.75
2019-05-18T18:26:08.441Z,22.52
2019-05-18T18:27:22.731Z,22.56
2019-05-18T18:29:04.178Z,22.45
2019-05-18T18:30:01.081Z,22.41
2019-05-18T18:31:53.937Z,22.33
2019-05-18T18:32:53.953Z,22.21